Time;durP1;ratioP1;P1;durP2;ratioP2;P2;SDS_P1;SDS_P2;PMS_P1;PMS_P2;Temp;Humidity;BMP_temperature;BMP_pressure;BME280_temperature;BME280_humidity;BME280_pressure;Samples;Min_cycle;Max_cycle;Signal;HPM_P1;HPM_P2
2023/05/26 00:01:46;;;;;;;14.60;8.93;;;;;;;;;;5011881;28;20895;-61
2023/05/26 00:04:12;;;;;;;11.43;8.47;;;;;;;;;;5012221;28;20546;-61
2023/05/26 00:06:40;;;;;;;16.20;9.03;;;;;;;;;;5012057;28;20775;-61
2023/05/26 00:09:06;;;;;;;13.00;8.73;;;;;;;;;;5011544;28;20498;-61
2023/05/26 00:11:32;;;;;;;12.87;8.50;;;;;;;;;;5011774;28;21057;-61
2023/05/26 00:13:57;;;;;;;11.47;8.37;;;;;;;;;;5011589;28;20426;-61
2023/05/26 00:16:23;;;;;;;11.13;8.53;;;;;;;;;;5011867;28;20443;-61
2023/05/26 00:18:49;;;;;;;9.87;8.93;;;;;;;;;;5011971;28;20412;-61
2023/05/26 00:21:15;;;;;;;8.97;8.27;;;;;;;;;;5011548;28;20859;-62
2023/05/26 00:23:44;;;;;;;18.27;8.53;;;;;;;;;;5011251;28;20494;-61
2023/05/26 00:26:10;;;;;;;18.83;9.33;;;;;;;;;;5015084;28;20427;-61
2023/05/26 00:28:36;;;;;;;14.93;8.30;;;;;;;;;;5015279;28;20518;-61
2023/05/26 00:31:02;;;;;;;10.93;7.83;;;;;;;;;;5015832;28;20562;-61
2023/05/26 00:33:28;;;;;;;8.37;7.67;;;;;;;;;;5015853;28;20436;-61
2023/05/26 00:35:56;;;;;;;14.57;8.83;;;;;;;;;;5015412;28;20408;-61
2023/05/26 00:38:22;;;;;;;10.90;8.63;;;;;;;;;;5015854;28;20412;-61
2023/05/26 00:40:48;;;;;;;9.33;7.60;;;;;;;;;;5015209;28;20417;-61
2023/05/26 00:43:14;;;;;;;8.80;7.90;;;;;;;;;;5015671;28;20427;-61
2023/05/26 00:45:40;;;;;;;9.07;8.17;;;;;;;;;;5015390;28;20478;-61
2023/05/26 00:48:06;;;;;;;12.43;7.97;;;;;;;;;;5014832;28;20441;-62
2023/05/26 00:50:33;;;;;;;15.60;8.93;;;;;;;;;;5015060;28;20471;-61
2023/05/26 00:53:00;;;;;;;9.90;8.90;;;;;;;;;;5015512;28;20523;-60
2023/05/26 00:55:28;;;;;;;18.63;8.50;;;;;;;;;;5015246;28;20439;-61
2023/05/26 00:57:56;;;;;;;12.00;8.40;;;;;;;;;;5015304;28;20469;-61
2023/05/26 01:00:23;;;;;;;13.23;9.07;;;;;;;;;;5015378;28;20442;-61
2023/05/26 01:02:51;;;;;;;16.53;9.63;;;;;;;;;;5015695;28;20410;-60
2023/05/26 01:05:17;;;;;;;9.90;8.90;;;;;;;;;;5014959;28;20427;-60
2023/05/26 01:07:43;;;;;;;14.57;9.10;;;;;;;;;;5015310;28;20423;-61
2023/05/26 01:10:10;;;;;;;10.33;8.40;;;;;;;;;;5014783;28;20910;-61
2023/05/26 01:12:39;;;;;;;17.20;9.67;;;;;;;;;;5014720;28;20440;-61
2023/05/26 01:15:17;;;;;;;12.60;8.70;;;;;;;;;;5013484;28;20423;-61
2023/05/26 01:18:04;;;;;;;13.27;8.10;;;;;;;;;;5014732;28;20964;-63
2023/05/26 01:20:37;;;;;;;13.50;8.40;;;;;;;;;;5014675;28;20952;-61
2023/05/26 01:23:14;;;;;;;14.47;9.20;;;;;;;;;;5014157;28;20503;-61
2023/05/26 01:25:46;;;;;;;10.10;8.97;;;;;;;;;;5015129;28;20992;-60
2023/05/26 01:28:12;;;;;;;13.43;9.00;;;;;;;;;;5014658;28;20526;-60
2023/05/26 01:30:39;;;;;;;16.23;9.20;;;;;;;;;;5013633;28;20525;-60
2023/05/26 01:33:04;;;;;;;12.47;9.43;;;;;;;;;;5014771;28;20417;-60
2023/05/26 01:35:30;;;;;;;12.23;9.17;;;;;;;;;;5014215;28;20816;-60
2023/05/26 01:37:57;;;;;;;12.43;9.47;;;;;;;;;;5014395;28;20534;-61
2023/05/26 01:40:23;;;;;;;20.60;9.87;;;;;;;;;;5014226;28;20786;-60
2023/05/26 01:42:59;;;;;;;11.97;8.40;;;;;;;;;;5012910;28;20506;-61
2023/05/26 01:45:25;;;;;;;18.60;10.00;;;;;;;;;;5014619;28;20513;-61
2023/05/26 01:47:54;;;;;;;11.27;9.53;;;;;;;;;;5014435;28;20934;-61
2023/05/26 01:50:23;;;;;;;15.03;9.70;;;;;;;;;;5012648;28;20501;-61
2023/05/26 01:52:51;;;;;;;11.83;10.10;;;;;;;;;;5014029;28;20501;-61
2023/05/26 01:55:18;;;;;;;14.70;9.97;;;;;;;;;;5013933;28;20420;-61
2023/05/26 01:57:44;;;;;;;13.77;9.93;;;;;;;;;;5014310;28;20412;-60
2023/05/26 02:00:11;;;;;;;14.50;10.50;;;;;;;;;;5014086;28;20425;-61
2023/05/26 02:02:37;;;;;;;18.10;10.33;;;;;;;;;;5013509;28;20426;-61
2023/05/26 02:05:04;;;;;;;17.90;9.70;;;;;;;;;;5014111;28;20780;-61
2023/05/26 02:07:30;;;;;;;18.03;9.57;;;;;;;;;;5013741;28;20447;-61
2023/05/26 02:09:56;;;;;;;28.30;9.80;;;;;;;;;;5013676;28;20439;-61
2023/05/26 02:12:22;;;;;;;19.10;10.17;;;;;;;;;;5013956;28;20484;-61
2023/05/26 02:14:48;;;;;;;16.20;10.00;;;;;;;;;;5013488;28;20425;-61
2023/05/26 02:17:17;;;;;;;16.77;9.63;;;;;;;;;;5013392;28;20410;-60
2023/05/26 02:19:43;;;;;;;17.97;10.10;;;;;;;;;;5014113;28;20460;-60
2023/05/26 02:22:08;;;;;;;14.40;9.70;;;;;;;;;;5013690;28;20504;-60
2023/05/26 02:24:34;;;;;;;11.90;10.27;;;;;;;;;;5013681;28;20417;-61
2023/05/26 02:27:00;;;;;;;17.17;10.23;;;;;;;;;;5013738;28;20449;-60
2023/05/26 02:29:26;;;;;;;14.27;9.67;;;;;;;;;;5013907;28;20418;-61
2023/05/26 02:31:52;;;;;;;16.63;10.03;;;;;;;;;;5012757;28;20469;-60
2023/05/26 02:34:18;;;;;;;11.23;9.80;;;;;;;;;;5013505;28;20414;-62
2023/05/26 02:36:44;;;;;;;11.63;10.50;;;;;;;;;;5013012;28;20429;-62
2023/05/26 02:39:10;;;;;;;11.27;10.03;;;;;;;;;;5013589;28;20410;-60
2023/05/26 02:41:36;;;;;;;18.63;11.03;;;;;;;;;;5012048;28;20454;-61
2023/05/26 02:44:02;;;;;;;14.13;10.07;;;;;;;;;;5013510;28;20483;-61
2023/05/26 02:46:28;;;;;;;11.03;10.00;;;;;;;;;;5012926;28;20514;-60
2023/05/26 02:48:54;;;;;;;16.33;10.20;;;;;;;;;;5012057;28;20426;-61
2023/05/26 02:51:20;;;;;;;20.27;11.10;;;;;;;;;;5012517;28;21070;-61
2023/05/26 02:53:46;;;;;;;21.50;11.33;;;;;;;;;;5013083;28;20434;-61
2023/05/26 02:56:15;;;;;;;15.60;10.60;;;;;;;;;;5011336;28;20888;-60
2023/05/26 02:58:44;;;;;;;16.10;11.37;;;;;;;;;;5013312;28;20785;-61
2023/05/26 03:01:10;;;;;;;15.83;11.00;;;;;;;;;;5013287;28;20947;-61
2023/05/26 03:03:36;;;;;;;15.27;11.13;;;;;;;;;;5012811;28;20414;-61
2023/05/26 03:06:03;;;;;;;15.60;10.17;;;;;;;;;;5013167;28;20447;-61
2023/05/26 03:08:29;;;;;;;12.30;9.93;;;;;;;;;;5013134;28;20468;-60
2023/05/26 03:10:55;;;;;;;12.80;10.10;;;;;;;;;;5012560;28;20519;-61
2023/05/26 03:13:21;;;;;;;18.47;10.73;;;;;;;;;;5012784;28;20422;-61
2023/05/26 03:15:48;;;;;;;22.60;10.90;;;;;;;;;;5012455;28;20408;-61
2023/05/26 03:18:14;;;;;;;19.67;9.50;;;;;;;;;;5012709;28;20455;-61
2023/05/26 03:20:40;;;;;;;17.00;10.40;;;;;;;;;;5011526;28;20474;-61
2023/05/26 03:23:07;;;;;;;15.83;9.97;;;;;;;;;;5012956;28;20418;-62
2023/05/26 03:25:33;;;;;;;16.77;9.47;;;;;;;;;;5012513;28;20521;-61
2023/05/26 03:27:59;;;;;;;12.87;9.17;;;;;;;;;;5012537;28;20862;-61
2023/05/26 03:30:25;;;;;;;12.20;10.50;;;;;;;;;;5012790;28;20469;-61
2023/05/26 03:32:51;;;;;;;17.27;10.37;;;;;;;;;;5012873;28;20467;-61
2023/05/26 03:35:17;;;;;;;16.27;9.80;;;;;;;;;;5012824;28;20425;-61
2023/05/26 03:37:43;;;;;;;16.00;10.20;;;;;;;;;;5012625;28;20955;-61
2023/05/26 03:40:09;;;;;;;24.73;10.63;;;;;;;;;;5012882;28;20492;-61
2023/05/26 03:42:35;;;;;;;12.70;9.97;;;;;;;;;;5012178;28;20880;-62
2023/05/26 03:45:01;;;;;;;15.30;9.60;;;;;;;;;;5010908;28;20787;-61
2023/05/26 03:47:27;;;;;;;15.70;9.73;;;;;;;;;;5012108;28;20467;-62
2023/05/26 03:49:53;;;;;;;17.70;9.97;;;;;;;;;;5012233;28;20517;-62
2023/05/26 03:52:20;;;;;;;17.37;9.40;;;;;;;;;;5011992;28;20469;-61
2023/05/26 03:54:48;;;;;;;17.13;9.40;;;;;;;;;;5012668;28;20409;-62
2023/05/26 03:57:14;;;;;;;20.03;10.57;;;;;;;;;;5011955;28;20425;-61
2023/05/26 03:59:40;;;;;;;17.00;9.63;;;;;;;;;;5011557;28;20428;-61
2023/05/26 04:02:06;;;;;;;12.77;9.30;;;;;;;;;;5012194;28;20855;-61
2023/05/26 04:04:35;;;;;;;16.53;9.93;;;;;;;;;;5011880;28;20413;-61
2023/05/26 04:07:01;;;;;;;18.70;11.00;;;;;;;;;;5011602;28;20428;-62
2023/05/26 04:09:27;;;;;;;19.20;10.30;;;;;;;;;;5011819;28;20420;-62
2023/05/26 04:11:53;;;;;;;13.77;9.20;;;;;;;;;;5011892;28;20559;-61
2023/05/26 04:14:19;;;;;;;14.17;10.50;;;;;;;;;;5011712;28;20899;-62
2023/05/26 04:16:45;;;;;;;15.03;10.10;;;;;;;;;;5011748;28;20847;-61
2023/05/26 04:19:11;;;;;;;14.97;9.80;;;;;;;;;;5012345;28;20888;-61
2023/05/26 04:21:37;;;;;;;16.90;9.70;;;;;;;;;;4992350;28;20417;-61
2023/05/26 04:24:06;;;;;;;17.47;10.00;;;;;;;;;;4992543;28;20421;-62
2023/05/26 04:26:35;;;;;;;10.97;9.80;;;;;;;;;;4992455;28;20947;-61
2023/05/26 04:29:01;;;;;;;11.77;9.73;;;;;;;;;;4992810;28;20476;-60
2023/05/26 04:31:30;;;;;;;12.73;9.63;;;;;;;;;;4991693;28;20473;-61
2023/05/26 04:33:57;;;;;;;15.60;9.97;;;;;;;;;;4992075;28;20439;-60
2023/05/26 04:36:26;;;;;;;13.57;9.80;;;;;;;;;;4991675;28;20417;-61
2023/05/26 04:38:54;;;;;;;12.33;9.30;;;;;;;;;;4992238;28;20501;-61
2023/05/26 04:41:20;;;;;;;18.93;9.70;;;;;;;;;;4991532;28;20438;-60
2023/05/26 04:43:46;;;;;;;11.60;9.63;;;;;;;;;;4992104;28;20444;-61
2023/05/26 04:46:13;;;;;;;24.63;14.80;;;;;;;;;;4992346;28;20901;-62
2023/05/26 04:48:39;;;;;;;13.43;9.97;;;;;;;;;;4990621;28;20504;-62
2023/05/26 04:51:07;;;;;;;16.97;10.67;;;;;;;;;;4996461;28;20534;-61
2023/05/26 04:53:33;;;;;;;14.23;10.53;;;;;;;;;;5010511;28;20520;-61
2023/05/26 04:56:03;;;;;;;12.57;9.10;;;;;;;;;;5010019;28;20860;-61
2023/05/26 04:58:29;;;;;;;12.13;9.73;;;;;;;;;;5010821;28;20837;-61
2023/05/26 05:00:58;;;;;;;19.57;9.90;;;;;;;;;;5011907;28;20447;-61
2023/05/26 05:03:24;;;;;;;10.70;9.50;;;;;;;;;;5012164;28;20499;-60
2023/05/26 05:05:52;;;;;;;22.57;10.10;;;;;;;;;;5010382;28;20492;-61
2023/05/26 05:08:18;;;;;;;13.77;9.70;;;;;;;;;;5011852;28;20512;-61
2023/05/26 05:10:44;;;;;;;14.53;9.67;;;;;;;;;;5012524;28;20640;-61
2023/05/26 05:13:13;;;;;;;11.57;10.20;;;;;;;;;;5015470;28;20480;-61
2023/05/26 05:15:39;;;;;;;17.50;11.13;;;;;;;;;;5015901;28;20433;-61
2023/05/26 05:18:05;;;;;;;19.90;10.00;;;;;;;;;;5014945;28;20903;-61
2023/05/26 05:20:31;;;;;;;17.67;10.20;;;;;;;;;;5013909;28;20428;-61
2023/05/26 05:23:00;;;;;;;18.50;10.50;;;;;;;;;;5014658;28;20785;-62
2023/05/26 05:25:26;;;;;;;14.60;9.73;;;;;;;;;;5014782;28;20550;-62
2023/05/26 05:27:52;;;;;;;14.63;10.30;;;;;;;;;;5014786;28;20457;-61
2023/05/26 05:30:19;;;;;;;23.37;13.50;;;;;;;;;;5015264;28;20522;-61
2023/05/26 05:32:47;;;;;;;17.80;9.20;;;;;;;;;;5014526;28;20904;-61
2023/05/26 05:35:13;;;;;;;12.80;10.10;;;;;;;;;;5015128;28;20764;-61
2023/05/26 05:37:39;;;;;;;16.53;11.40;;;;;;;;;;5014346;28;20497;-61
2023/05/26 05:40:05;;;;;;;10.37;9.37;;;;;;;;;;5013652;28;20515;-61
2023/05/26 05:42:31;;;;;;;13.80;10.10;;;;;;;;;;5014337;28;20443;-61
2023/05/26 05:45:00;;;;;;;13.27;9.90;;;;;;;;;;5013431;28;20449;-61
2023/05/26 05:47:28;;;;;;;22.43;10.70;;;;;;;;;;5014377;28;20414;-61
2023/05/26 05:49:54;;;;;;;15.87;10.00;;;;;;;;;;5014499;28;20436;-61
2023/05/26 05:52:20;;;;;;;11.80;9.50;;;;;;;;;;5014035;28;20484;-60
2023/05/26 05:54:48;;;;;;;17.80;11.50;;;;;;;;;;5014205;28;20446;-60
2023/05/26 05:57:14;;;;;;;21.93;10.90;;;;;;;;;;5013939;28;20506;-60
2023/05/26 05:59:40;;;;;;;24.60;15.33;;;;;;;;;;5013916;28;20541;-60
2023/05/26 06:02:06;;;;;;;15.77;9.77;;;;;;;;;;5014303;28;20453;-60
2023/05/26 06:04:32;;;;;;;12.20;9.87;;;;;;;;;;5012814;28;20421;-60
2023/05/26 06:06:58;;;;;;;22.53;11.40;;;;;;;;;;5012306;28;20532;-61
2023/05/26 06:09:24;;;;;;;10.10;9.03;;;;;;;;;;5012674;28;20433;-60
2023/05/26 06:11:50;;;;;;;10.80;9.80;;;;;;;;;;5013037;28;20953;-60
2023/05/26 06:14:19;;;;;;;17.60;10.70;;;;;;;;;;5012668;28;20799;-60
2023/05/26 06:16:45;;;;;;;11.63;10.20;;;;;;;;;;5013961;28;20414;-60
2023/05/26 06:19:11;;;;;;;18.10;10.20;;;;;;;;;;5013834;28;20419;-60
2023/05/26 06:21:39;;;;;;;17.27;10.60;;;;;;;;;;5013945;28;20426;-60
2023/05/26 06:24:05;;;;;;;14.70;10.13;;;;;;;;;;5012443;28;20441;-60
2023/05/26 06:26:31;;;;;;;23.23;16.07;;;;;;;;;;5013975;28;20460;-60
2023/05/26 06:28:57;;;;;;;19.80;12.37;;;;;;;;;;5013761;28;20441;-60
2023/05/26 06:31:25;;;;;;;15.80;10.20;;;;;;;;;;5013929;28;20569;-60
2023/05/26 06:33:51;;;;;;;14.53;10.50;;;;;;;;;;5013810;28;20438;-59
2023/05/26 06:36:20;;;;;;;12.73;9.30;;;;;;;;;;5013845;28;20412;-60
2023/05/26 06:38:46;;;;;;;15.90;10.57;;;;;;;;;;5013798;28;20457;-61
2023/05/26 06:41:12;;;;;;;13.63;10.47;;;;;;;;;;5013573;28;20911;-61
2023/05/26 06:43:38;;;;;;;13.77;10.47;;;;;;;;;;5013316;28;20434;-60
2023/05/26 06:46:04;;;;;;;12.30;9.83;;;;;;;;;;5013032;28;20490;-61
2023/05/26 06:48:30;;;;;;;22.13;10.40;;;;;;;;;;5013912;28;20427;-60
2023/05/26 06:50:56;;;;;;;16.30;10.23;;;;;;;;;;5013361;28;20562;-58
2023/05/26 06:53:22;;;;;;;14.20;10.43;;;;;;;;;;5013209;28;20436;-57
2023/05/26 06:55:48;;;;;;;12.50;10.20;;;;;;;;;;5013333;28;20446;-58
2023/05/26 06:58:14;;;;;;;16.83;10.80;;;;;;;;;;5013351;28;20410;-58
2023/05/26 07:00:55;;;;;;;21.70;10.53;;;;;;;;;;5013433;28;20411;-59
2023/05/26 07:03:21;;;;;;;18.50;10.90;;;;;;;;;;5013167;28;20431;-59
2023/05/26 07:05:47;;;;;;;12.53;9.73;;;;;;;;;;5013287;28;20771;-58
2023/05/26 07:08:13;;;;;;;18.27;13.63;;;;;;;;;;5013133;28;20436;-58
2023/05/26 07:10:39;;;;;;;13.97;10.50;;;;;;;;;;5013036;28;20463;-59
2023/05/26 07:13:05;;;;;;;13.00;10.57;;;;;;;;;;5012875;28;20436;-59
2023/05/26 07:15:31;;;;;;;13.37;10.40;;;;;;;;;;5012988;28;20451;-59
2023/05/26 07:17:57;;;;;;;18.10;11.50;;;;;;;;;;5012929;28;20448;-59
2023/05/26 07:20:23;;;;;;;15.17;11.03;;;;;;;;;;5012877;28;20427;-59
2023/05/26 07:22:49;;;;;;;14.67;10.00;;;;;;;;;;5012747;28;20510;-59
2023/05/26 07:25:15;;;;;;;16.20;10.33;;;;;;;;;;5012807;28;20443;-59
2023/05/26 07:27:41;;;;;;;17.03;9.43;;;;;;;;;;5012817;28;20470;-59
2023/05/26 07:30:09;;;;;;;13.30;9.70;;;;;;;;;;5013174;28;20439;-58
2023/05/26 07:32:35;;;;;;;11.83;9.37;;;;;;;;;;5012858;28;20468;-59
2023/05/26 07:35:01;;;;;;;18.57;10.70;;;;;;;;;;5012416;28;20494;-59
2023/05/26 07:37:27;;;;;;;14.70;11.33;;;;;;;;;;5012514;28;20447;-59
2023/05/26 07:39:53;;;;;;;16.93;11.00;;;;;;;;;;5012554;28;20502;-58
2023/05/26 07:42:18;;;;;;;13.07;9.73;;;;;;;;;;5012528;28;20416;-59
2023/05/26 07:44:44;;;;;;;12.30;10.20;;;;;;;;;;5012801;28;20630;-59
2023/05/26 07:47:10;;;;;;;17.23;11.00;;;;;;;;;;5012856;28;20796;-58
2023/05/26 07:49:36;;;;;;;13.10;9.87;;;;;;;;;;5012523;28;20455;-59
2023/05/26 07:52:03;;;;;;;18.20;11.67;;;;;;;;;;5012344;28;20479;-59
2023/05/26 07:54:28;;;;;;;14.63;10.63;;;;;;;;;;5012574;28;20430;-59
2023/05/26 07:56:54;;;;;;;10.20;9.10;;;;;;;;;;5011068;28;20410;-59
2023/05/26 07:59:20;;;;;;;10.13;9.13;;;;;;;;;;5012548;28;20427;-58
2023/05/26 08:01:46;;;;;;;16.23;10.10;;;;;;;;;;5012317;28;20825;-59
2023/05/26 08:04:12;;;;;;;14.30;10.70;;;;;;;;;;5012261;28;20433;-58
2023/05/26 08:06:41;;;;;;;11.50;10.03;;;;;;;;;;5012259;28;20455;-59
2023/05/26 08:09:07;;;;;;;13.33;10.70;;;;;;;;;;5012368;28;20444;-58
2023/05/26 08:11:33;;;;;;;10.30;9.37;;;;;;;;;;5012001;28;20522;-58
2023/05/26 08:13:59;;;;;;;20.07;10.20;;;;;;;;;;5012221;28;20409;-58
2023/05/26 08:16:25;;;;;;;12.80;9.40;;;;;;;;;;5011929;28;20452;-58
2023/05/26 08:18:51;;;;;;;14.23;10.13;;;;;;;;;;5012176;28;20422;-59
2023/05/26 08:21:17;;;;;;;11.10;10.00;;;;;;;;;;5012404;28;20475;-58
2023/05/26 08:23:43;;;;;;;20.03;10.53;;;;;;;;;;5012241;28;21008;-58
2023/05/26 08:26:09;;;;;;;13.73;9.80;;;;;;;;;;5012192;28;20491;-58
2023/05/26 08:28:35;;;;;;;13.40;10.70;;;;;;;;;;5012218;28;20469;-58
2023/05/26 08:31:01;;;;;;;13.10;10.20;;;;;;;;;;5012369;28;20885;-58
2023/05/26 08:33:27;;;;;;;11.77;8.97;;;;;;;;;;5012060;28;20410;-59
2023/05/26 08:35:53;;;;;;;10.23;9.10;;;;;;;;;;5012279;28;20421;-59
2023/05/26 08:38:19;;;;;;;17.43;9.77;;;;;;;;;;5011930;28;20468;-58
2023/05/26 08:40:46;;;;;;;14.90;9.20;;;;;;;;;;5012049;28;20415;-59
2023/05/26 08:43:13;;;;;;;11.50;8.70;;;;;;;;;;5012003;28;20437;-59
2023/05/26 08:45:39;;;;;;;12.03;8.60;;;;;;;;;;5012801;28;20764;-58
2023/05/26 08:48:08;;;;;;;11.83;9.40;;;;;;;;;;5014798;28;20477;-59
2023/05/26 08:50:34;;;;;;;18.10;13.03;;;;;;;;;;5014188;28;20472;-59
2023/05/26 08:53:01;;;;;;;10.90;9.43;;;;;;;;;;5015763;28;20461;-59
2023/05/26 08:55:27;;;;;;;10.00;9.20;;;;;;;;;;5015706;28;20418;-59
2023/05/26 08:57:54;;;;;;;13.53;8.83;;;;;;;;;;5015476;28;20409;-58
2023/05/26 09:00:22;;;;;;;11.40;9.10;;;;;;;;;;5015698;28;20450;-59
2023/05/26 09:02:48;;;;;;;13.90;10.30;;;;;;;;;;5015444;28;20421;-58
2023/05/26 09:05:17;;;;;;;21.80;13.83;;;;;;;;;;5015604;28;20436;-59
2023/05/26 09:07:43;;;;;;;11.03;8.60;;;;;;;;;;5015305;28;20822;-58
2023/05/26 09:10:24;;;;;;;9.73;8.57;;;;;;;;;;5015471;28;20505;-58
2023/05/26 09:13:01;;;;;;;13.23;8.37;;;;;;;;;;5015536;28;21127;-58
2023/05/26 09:15:30;;;;;;;10.73;9.20;;;;;;;;;;5015225;28;20412;-59
2023/05/26 09:18:03;;;;;;;12.63;9.90;;;;;;;;;;5014878;28;20413;-59
2023/05/26 09:20:29;;;;;;;14.10;9.47;;;;;;;;;;5015106;28;20398;-59
2023/05/26 09:22:59;;;;;;;15.30;9.10;;;;;;;;;;5015272;28;20806;-59
2023/05/26 09:25:36;;;;;;;10.20;8.57;;;;;;;;;;5015246;28;20679;-59
2023/05/26 09:28:06;;;;;;;13.60;8.73;;;;;;;;;;5014994;28;20428;-58
2023/05/26 09:30:36;;;;;;;9.47;8.50;;;;;;;;;;5014934;28;20885;-58
2023/05/26 09:33:08;;;;;;;15.00;9.37;;;;;;;;;;5014955;28;20407;-59
2023/05/26 09:35:44;;;;;;;12.07;8.43;;;;;;;;;;5014860;28;20569;-58
2023/05/26 09:38:11;;;;;;;11.00;8.43;;;;;;;;;;5014786;28;20434;-59
2023/05/26 09:40:41;;;;;;;11.30;8.50;;;;;;;;;;5014821;28;20449;-59
2023/05/26 09:43:09;;;;;;;11.80;8.47;;;;;;;;;;5014981;28;20476;-58
2023/05/26 09:45:38;;;;;;;13.00;9.00;;;;;;;;;;5014590;28;20424;-59
2023/05/26 09:48:05;;;;;;;10.93;9.60;;;;;;;;;;5014798;28;20510;-59
2023/05/26 09:50:34;;;;;;;14.23;8.93;;;;;;;;;;5015115;28;20514;-59
2023/05/26 09:53:02;;;;;;;13.50;9.13;;;;;;;;;;5015075;28;20433;-58
2023/05/26 09:55:28;;;;;;;13.13;9.07;;;;;;;;;;5015090;28;20483;-59
2023/05/26 09:57:55;;;;;;;14.00;8.53;;;;;;;;;;5014722;28;20780;-58
2023/05/26 10:00:22;;;;;;;9.07;8.17;;;;;;;;;;5015012;28;20428;-59
2023/05/26 10:02:48;;;;;;;11.77;9.43;;;;;;;;;;5014754;28;20434;-59
2023/05/26 10:05:15;;;;;;;14.33;8.63;;;;;;;;;;5014977;28;20409;-59
2023/05/26 10:07:42;;;;;;;11.30;9.00;;;;;;;;;;5014843;28;20455;-59
2023/05/26 10:10:10;;;;;;;10.43;8.20;;;;;;;;;;5014671;28;20424;-59
2023/05/26 10:12:36;;;;;;;17.10;9.03;;;;;;;;;;5013537;28;20496;-59
2023/05/26 10:15:04;;;;;;;14.47;9.03;;;;;;;;;;5014801;28;20406;-59
2023/05/26 10:17:30;;;;;;;13.77;8.07;;;;;;;;;;5013676;28;20435;-58
2023/05/26 10:19:57;;;;;;;13.03;8.60;;;;;;;;;;5014929;28;20426;-59
2023/05/26 10:22:38;;;;;;;12.60;8.47;;;;;;;;;;5014632;28;20420;-59
2023/05/26 10:25:08;;;;;;;12.73;8.80;;;;;;;;;;5014556;28;20444;-59
2023/05/26 10:27:41;;;;;;;16.83;9.60;;;;;;;;;;5014418;28;20565;-59
2023/05/26 10:30:08;;;;;;;17.57;9.07;;;;;;;;;;5014559;28;20419;-59
2023/05/26 10:32:54;;;;;;;13.80;10.00;;;;;;;;;;5014485;28;20564;-59
2023/05/26 10:35:30;;;;;;;12.83;8.37;;;;;;;;;;5013174;28;20485;-59
2023/05/26 10:38:02;;;;;;;9.87;8.83;;;;;;;;;;5014130;28;20930;-59
2023/05/26 10:40:34;;;;;;;10.50;7.40;;;;;;;;;;5013842;28;20549;-59
2023/05/26 10:43:02;;;;;;;17.00;8.70;;;;;;;;;;5012718;28;20428;-59
2023/05/26 10:45:35;;;;;;;11.03;8.10;;;;;;;;;;5014114;28;20992;-59
2023/05/26 10:48:10;;;;;;;21.43;7.63;;;;;;;;;;5013766;28;20450;-59
2023/05/26 10:50:55;;;;;;;11.10;8.17;;;;;;;;;;5013469;28;20473;-59
2023/05/26 10:53:21;;;;;;;9.13;7.80;;;;;;;;;;5013622;28;20849;-59
2023/05/26 10:56:25;;;;;;;9.27;8.33;;;;;;;;;;5014011;28;20443;-59
2023/05/26 10:58:52;;;;;;;11.20;8.20;;;;;;;;;;4982920;28;20418;-59
2023/05/26 11:01:28;;;;;;;14.87;7.23;;;;;;;;;;5013639;28;20824;-59
2023/05/26 11:04:08;;;;;;;13.93;8.37;;;;;;;;;;5013579;28;20412;-59
2023/05/26 11:06:54;;;;;;;14.13;8.60;;;;;;;;;;5013609;28;20416;-60
2023/05/26 11:09:24;;;;;;;8.33;7.00;;;;;;;;;;5013061;28;20445;-59
2023/05/26 11:11:51;;;;;;;10.43;7.30;;;;;;;;;;5013296;28;20467;-59
2023/05/26 11:14:21;;;;;;;8.03;6.97;;;;;;;;;;5013364;28;20946;-59
2023/05/26 11:16:48;;;;;;;15.20;6.90;;;;;;;;;;5013501;28;20776;-59
2023/05/26 11:19:15;;;;;;;14.03;6.40;;;;;;;;;;5013288;28;20432;-59
2023/05/26 11:21:41;;;;;;;14.43;8.13;;;;;;;;;;5013358;28;20484;-59
2023/05/26 11:24:07;;;;;;;10.87;8.00;;;;;;;;;;5013267;28;20425;-59
2023/05/26 11:26:34;;;;;;;12.37;8.03;;;;;;;;;;5013180;28;20427;-59
2023/05/26 11:29:02;;;;;;;7.73;7.10;;;;;;;;;;5013036;28;20411;-59
2023/05/26 11:31:30;;;;;;;7.87;6.70;;;;;;;;;;5012865;28;20464;-59
2023/05/26 11:33:57;;;;;;;10.17;7.20;;;;;;;;;;5013033;28;20432;-59
2023/05/26 11:36:24;;;;;;;17.53;7.20;;;;;;;;;;5013005;28;20412;-59
2023/05/26 11:38:56;;;;;;;7.83;6.90;;;;;;;;;;5013039;28;20476;-59
2023/05/26 11:41:26;;;;;;;7.73;6.90;;;;;;;;;;5012602;28;20408;-59
2023/05/26 11:43:56;;;;;;;17.37;7.93;;;;;;;;;;5013279;28;20429;-59
2023/05/26 11:46:22;;;;;;;11.90;7.73;;;;;;;;;;5013268;28;20444;-59
2023/05/26 11:48:53;;;;;;;8.50;7.37;;;;;;;;;;5013149;28;20479;-59
2023/05/26 11:51:20;;;;;;;9.10;7.33;;;;;;;;;;5012943;28;20474;-60
2023/05/26 11:53:46;;;;;;;16.77;12.83;;;;;;;;;;5013230;28;20435;-59
2023/05/26 11:56:12;;;;;;;13.40;8.90;;;;;;;;;;5012914;28;20777;-59
2023/05/26 11:58:41;;;;;;;10.13;7.93;;;;;;;;;;5011754;28;20444;-59
2023/05/26 12:01:08;;;;;;;9.00;6.40;;;;;;;;;;5012829;28;20428;-59
2023/05/26 12:03:41;;;;;;;11.20;7.50;;;;;;;;;;5013016;28;20887;-59
2023/05/26 12:06:08;;;;;;;10.53;7.83;;;;;;;;;;5012858;28;20439;-59
2023/05/26 12:08:46;;;;;;;7.83;6.70;;;;;;;;;;5012924;28;21064;-60
2023/05/26 12:11:16;;;;;;;8.57;7.23;;;;;;;;;;5012794;28;20545;-61
2023/05/26 12:13:42;;;;;;;11.73;6.77;;;;;;;;;;5012842;28;20420;-62
2023/05/26 12:16:23;;;;;;;11.27;7.13;;;;;;;;;;5012654;28;20436;-61
2023/05/26 12:18:54;;;;;;;9.37;6.80;;;;;;;;;;5012818;28;20410;-61
2023/05/26 12:21:21;;;;;;;7.03;6.40;;;;;;;;;;5016405;28;20428;-61
2023/05/26 12:23:50;;;;;;;11.30;6.70;;;;;;;;;;5016786;28;20516;-59
2023/05/26 12:26:22;;;;;;;11.30;7.00;;;;;;;;;;5016469;28;20934;-59
2023/05/26 12:29:04;;;;;;;12.83;7.77;;;;;;;;;;5016733;28;20831;-59
2023/05/26 12:31:56;;;;;;;13.50;6.83;;;;;;;;;;5016611;28;20470;-60
2023/05/26 12:34:27;;;;;;;9.67;7.20;;;;;;;;;;5013816;28;20441;-60
2023/05/26 12:36:53;;;;;;;13.50;7.63;;;;;;;;;;5016568;28;20416;-60
2023/05/26 12:39:19;;;;;;;10.97;6.80;;;;;;;;;;5016596;28;20412;-60
2023/05/26 12:41:46;;;;;;;8.33;6.90;;;;;;;;;;5015373;28;20423;-60
2023/05/26 12:44:12;;;;;;;13.50;7.63;;;;;;;;;;5016593;28;20424;-60
2023/05/26 12:46:39;;;;;;;10.97;6.80;;;;;;;;;;5015885;28;20498;-60
2023/05/26 12:49:07;;;;;;;10.97;7.10;;;;;;;;;;5016237;28;20415;-60
2023/05/26 12:51:33;;;;;;;9.63;6.40;;;;;;;;;;5016047;28;20480;-60
2023/05/26 12:53:59;;;;;;;9.47;7.33;;;;;;;;;;5015091;28;20409;-60
2023/05/26 12:56:26;;;;;;;14.27;7.80;;;;;;;;;;5016114;28;20515;-59
2023/05/26 12:58:52;;;;;;;7.33;6.60;;;;;;;;;;5016133;28;20466;-59
2023/05/26 13:01:21;;;;;;;8.50;6.93;;;;;;;;;;5016070;28;20410;-60
2023/05/26 13:03:48;;;;;;;12.37;7.90;;;;;;;;;;5016100;28;20509;-60
2023/05/26 13:06:14;;;;;;;18.10;7.23;;;;;;;;;;5015990;28;20428;-59
2023/05/26 13:08:43;;;;;;;10.57;7.87;;;;;;;;;;5016032;28;20413;-60
2023/05/26 13:11:10;;;;;;;9.10;6.37;;;;;;;;;;5015858;28;20464;-60
2023/05/26 13:13:36;;;;;;;8.60;6.33;;;;;;;;;;5015811;28;20804;-60
2023/05/26 13:16:02;;;;;;;12.90;7.53;;;;;;;;;;5015658;28;20925;-60
2023/05/26 13:18:28;;;;;;;18.83;7.70;;;;;;;;;;5015703;28;20446;-60
2023/05/26 13:20:55;;;;;;;11.00;7.67;;;;;;;;;;5015602;28;20431;-59
2023/05/26 13:23:21;;;;;;;7.17;6.63;;;;;;;;;;5015551;28;20403;-60
2023/05/26 13:25:47;;;;;;;12.77;7.13;;;;;;;;;;5015658;28;20857;-60
2023/05/26 13:28:13;;;;;;;10.57;7.13;;;;;;;;;;5015652;28;20520;-60
2023/05/26 13:30:39;;;;;;;14.00;7.23;;;;;;;;;;5015456;28;20453;-60
2023/05/26 13:33:05;;;;;;;8.90;8.00;;;;;;;;;;5014819;28;20405;-59
2023/05/26 13:35:31;;;;;;;14.63;6.73;;;;;;;;;;5015445;28;20407;-60
2023/05/26 13:37:57;;;;;;;11.90;7.10;;;;;;;;;;5015529;28;20497;-60
2023/05/26 13:40:23;;;;;;;8.93;6.77;;;;;;;;;;5015413;28;20451;-60
2023/05/26 13:42:51;;;;;;;13.20;7.03;;;;;;;;;;5014088;28;20461;-60
2023/05/26 13:45:17;;;;;;;10.77;6.90;;;;;;;;;;5015097;28;20494;-59
2023/05/26 13:47:46;;;;;;;15.33;6.57;;;;;;;;;;5015211;28;20444;-59
2023/05/26 13:50:12;;;;;;;7.60;6.90;;;;;;;;;;5015139;28;20455;-60
2023/05/26 13:52:39;;;;;;;9.50;6.83;;;;;;;;;;5014675;28;20478;-60
2023/05/26 13:55:07;;;;;;;10.27;6.60;;;;;;;;;;5015088;28;20482;-60
2023/05/26 13:57:33;;;;;;;11.33;6.67;;;;;;;;;;5014931;28;20980;-60
2023/05/26 14:00:00;;;;;;;8.73;6.60;;;;;;;;;;5014932;28;20901;-60
2023/05/26 14:02:32;;;;;;;8.83;7.50;;;;;;;;;;5014650;28;20944;-59
2023/05/26 14:04:58;;;;;;;7.57;5.57;;;;;;;;;;5014830;28;20478;-60
2023/05/26 14:07:24;;;;;;;10.97;6.20;;;;;;;;;;5013551;28;20456;-59
2023/05/26 14:09:50;;;;;;;6.40;5.90;;;;;;;;;;5014597;28;20424;-60
2023/05/26 14:12:18;;;;;;;12.70;7.93;;;;;;;;;;5014580;28;20523;-59
2023/05/26 14:14:44;;;;;;;13.33;7.20;;;;;;;;;;5014659;28;20459;-60
2023/05/26 14:17:10;;;;;;;12.40;7.23;;;;;;;;;;5014615;28;20442;-60
2023/05/26 14:19:39;;;;;;;9.23;6.47;;;;;;;;;;5014603;28;20502;-59
2023/05/26 14:22:08;;;;;;;18.57;8.17;;;;;;;;;;5014534;28;20447;-60
2023/05/26 14:24:34;;;;;;;24.00;8.10;;;;;;;;;;5014269;28;20474;-60
2023/05/26 14:27:00;;;;;;;8.63;6.13;;;;;;;;;;5014320;28;20524;-59
2023/05/26 14:29:27;;;;;;;7.80;6.40;;;;;;;;;;5014340;28;20416;-59
2023/05/26 14:31:55;;;;;;;7.07;6.30;;;;;;;;;;5014305;28;20474;-60